createdAt,value
2023-05-14T00:01:16.697Z,100.00
2023-05-14T00:03:43.889Z,100.00
2023-05-14T00:06:11.285Z,100.00
2023-05-14T00:08:38.123Z,100.00
2023-05-14T00:11:05.075Z,100.00
2023-05-14T00:13:32.327Z,100.00
2023-05-14T00:15:59.238Z,100.00
2023-05-14T00:18:26.164Z,100.00
2023-05-14T00:20:54.944Z,100.00
2023-05-14T00:23:22.622Z,100.00
2023-05-14T00:25:49.925Z,100.00
2023-05-14T00:28:16.852Z,100.00
2023-05-14T00:30:44.294Z,100.00
2023-05-14T00:33:11.113Z,100.00
2023-05-14T00:35:37.993Z,100.00
2023-05-14T00:38:04.961Z,100.00
2023-05-14T00:40:31.805Z,100.00
2023-05-14T00:42:58.784Z,100.00
2023-05-14T00:45:25.965Z,100.00
2023-05-14T00:47:54.133Z,100.00
2023-05-14T00:50:21.654Z,100.00
2023-05-14T00:52:49.453Z,100.00
2023-05-14T00:55:16.982Z,100.00
2023-05-14T00:57:44.317Z,100.00
2023-05-14T01:00:11.753Z,100.00
2023-05-14T01:02:38.700Z,100.00
2023-05-14T01:05:06.862Z,100.00
2023-05-14T01:08:01.987Z,100.00
2023-05-14T01:10:55.242Z,100.00
2023-05-14T01:13:35.030Z,100.00
2023-05-14T01:16:04.264Z,100.00
2023-05-14T01:18:32.650Z,100.00
2023-05-14T01:20:59.580Z,100.00
2023-05-14T01:23:26.352Z,100.00
2023-05-14T01:25:53.397Z,100.00
2023-05-14T01:28:29.680Z,100.00
2023-05-14T01:31:18.680Z,100.00
2023-05-14T01:33:48.510Z,100.00
2023-05-14T01:36:15.683Z,100.00
2023-05-14T01:38:45.700Z,100.00
2023-05-14T01:41:13.827Z,100.00
2023-05-14T01:43:41.421Z,100.00
2023-05-14T01:46:08.351Z,100.00
2023-05-14T01:48:35.419Z,100.00
2023-05-14T01:51:02.640Z,100.00
2023-05-14T01:53:29.466Z,100.00
2023-05-14T01:55:56.335Z,100.00
2023-05-14T01:58:23.216Z,100.00
2023-05-14T02:00:50.084Z,100.00
2023-05-14T02:03:16.919Z,100.00
2023-05-14T02:05:43.770Z,100.00
2023-05-14T02:08:10.623Z,100.00
2023-05-14T02:10:37.553Z,100.00
2023-05-14T02:13:04.442Z,100.00
2023-05-14T02:15:31.370Z,100.00
2023-05-14T02:17:58.334Z,100.00
2023-05-14T02:20:25.321Z,100.00
2023-05-14T02:22:52.407Z,100.00
2023-05-14T02:25:19.228Z,100.00
2023-05-14T02:27:46.580Z,100.00
2023-05-14T02:30:13.547Z,100.00
2023-05-14T02:32:40.522Z,100.00
2023-05-14T02:35:07.956Z,100.00
2023-05-14T02:37:34.886Z,100.00
2023-05-14T02:40:01.872Z,100.00
2023-05-14T02:42:28.686Z,100.00
2023-05-14T02:44:55.714Z,100.00
2023-05-14T02:47:22.564Z,100.00
2023-05-14T02:49:49.423Z,100.00
2023-05-14T02:52:16.239Z,100.00
2023-05-14T02:54:43.150Z,100.00
2023-05-14T02:57:10.117Z,100.00
2023-05-14T02:59:37.028Z,100.00
2023-05-14T03:02:04.435Z,100.00
2023-05-14T03:04:31.949Z,100.00
2023-05-14T03:06:58.750Z,100.00
2023-05-14T03:09:25.632Z,100.00
2023-05-14T03:11:52.434Z,100.00
2023-05-14T03:14:19.391Z,100.00
2023-05-14T03:16:46.302Z,100.00
2023-05-14T03:19:13.316Z,100.00
2023-05-14T03:21:40.325Z,100.00
2023-05-14T03:24:07.232Z,100.00
2023-05-14T03:26:34.165Z,100.00
2023-05-14T03:29:02.240Z,100.00
2023-05-14T03:31:29.457Z,100.00
2023-05-14T03:33:56.346Z,100.00
2023-05-14T03:36:23.152Z,100.00
2023-05-14T03:38:49.950Z,100.00
2023-05-14T03:41:19.302Z,100.00
2023-05-14T03:43:47.733Z,100.00
2023-05-14T03:46:14.741Z,100.00
2023-05-14T03:48:42.925Z,100.00
2023-05-14T03:51:09.822Z,100.00
2023-05-14T03:53:36.724Z,100.00
2023-05-14T03:56:03.784Z,100.00
2023-05-14T03:58:30.991Z,100.00
2023-05-14T04:00:57.820Z,100.00
2023-05-14T04:03:24.906Z,100.00
2023-05-14T04:05:51.989Z,100.00
2023-05-14T04:08:18.884Z,100.00
2023-05-14T04:10:46.294Z,100.00
2023-05-14T04:13:13.115Z,100.00
2023-05-14T04:15:39.982Z,100.00
2023-05-14T04:18:07.004Z,100.00
2023-05-14T04:20:34.199Z,100.00
2023-05-14T04:23:01.605Z,100.00
2023-05-14T04:25:28.451Z,100.00
2023-05-14T04:27:55.233Z,100.00
2023-05-14T04:30:22.371Z,100.00
2023-05-14T04:32:49.467Z,100.00
2023-05-14T04:35:16.430Z,100.00
2023-05-14T04:37:44.567Z,100.00
2023-05-14T04:40:12.678Z,100.00
2023-05-14T04:42:39.671Z,100.00
2023-05-14T04:45:07.451Z,100.00
2023-05-14T04:47:34.876Z,100.00
2023-05-14T04:50:02.113Z,100.00
2023-05-14T04:52:28.974Z,100.00
2023-05-14T04:54:57.029Z,100.00
2023-05-14T04:57:23.920Z,100.00
2023-05-14T04:59:50.761Z,100.00
2023-05-14T05:02:18.823Z,100.00
2023-05-14T05:04:47.123Z,100.00
2023-05-14T05:07:14.620Z,100.00
2023-05-14T05:09:43.028Z,100.00
2023-05-14T05:12:10.449Z,100.00
2023-05-14T05:14:37.400Z,100.00
2023-05-14T05:17:05.895Z,100.00
2023-05-14T05:19:43.160Z,100.00
2023-05-14T05:22:13.076Z,100.00
2023-05-14T05:24:43.128Z,100.00
2023-05-14T05:27:10.905Z,100.00
2023-05-14T05:30:07.150Z,100.00
2023-05-14T05:32:44.090Z,100.00
2023-05-14T05:35:11.046Z,100.00
2023-05-14T05:37:37.887Z,100.00
2023-05-14T05:40:06.242Z,100.00
2023-05-14T05:42:33.050Z,100.00
2023-05-14T05:44:59.806Z,100.00
2023-05-14T05:47:26.630Z,100.00
2023-05-14T05:49:54.054Z,100.00
2023-05-14T05:52:20.879Z,100.00
2023-05-14T05:54:47.662Z,100.00
2023-05-14T05:57:14.436Z,100.00
2023-05-14T05:59:41.361Z,100.00
2023-05-14T06:02:08.208Z,100.00
2023-05-14T06:04:35.106Z,100.00
2023-05-14T06:07:01.939Z,100.00
2023-05-14T06:09:28.711Z,100.00
2023-05-14T06:11:55.636Z,100.00
2023-05-14T06:14:22.380Z,100.00
2023-05-14T06:16:49.193Z,100.00
2023-05-14T06:19:16.147Z,100.00
2023-05-14T06:21:42.996Z,100.00
2023-05-14T06:24:10.186Z,100.00
2023-05-14T06:26:36.971Z,100.00
2023-05-14T06:29:03.787Z,100.00
2023-05-14T06:31:30.639Z,100.00
2023-05-14T06:33:57.481Z,100.00
2023-05-14T06:36:24.250Z,100.00
2023-05-14T06:38:51.067Z,100.00
2023-05-14T06:41:17.891Z,100.00
2023-05-14T06:43:44.715Z,100.00
2023-05-14T06:46:11.484Z,100.00
2023-05-14T06:48:38.249Z,100.00
2023-05-14T06:51:05.106Z,100.00
2023-05-14T06:53:32.071Z,100.00
2023-05-14T06:55:59.011Z,100.00
2023-05-14T06:58:25.924Z,100.00
2023-05-14T07:00:53.092Z,100.00
2023-05-14T07:03:20.039Z,100.00
2023-05-14T07:05:48.261Z,100.00
2023-05-14T07:08:15.340Z,100.00
2023-05-14T07:10:42.510Z,100.00
2023-05-14T07:13:09.566Z,100.00
2023-05-14T07:15:37.229Z,100.00
2023-05-14T07:18:04.480Z,100.00
2023-05-14T07:20:32.691Z,100.00
2023-05-14T07:22:59.749Z,100.00
2023-05-14T07:25:26.856Z,100.00
2023-05-14T07:27:53.764Z,100.00
2023-05-14T07:30:21.068Z,100.00
2023-05-14T07:32:49.972Z,100.00
2023-05-14T07:35:17.010Z,100.00
2023-05-14T07:37:44.633Z,100.00
2023-05-14T07:40:12.021Z,100.00
2023-05-14T07:42:38.954Z,100.00
2023-05-14T07:45:06.724Z,100.00
2023-05-14T07:47:33.936Z,100.00
2023-05-14T07:50:01.193Z,100.00
2023-05-14T07:52:28.333Z,100.00
2023-05-14T07:54:55.314Z,100.00
2023-05-14T07:57:22.642Z,100.00
2023-05-14T07:59:49.622Z,100.00
2023-05-14T08:02:16.932Z,100.00
2023-05-14T08:04:46.822Z,100.00
2023-05-14T08:07:13.862Z,100.00
2023-05-14T08:09:42.312Z,100.00
2023-05-14T08:12:10.591Z,100.00
2023-05-14T08:14:37.635Z,100.00
2023-05-14T08:17:04.824Z,100.00
2023-05-14T08:19:32.203Z,100.00
2023-05-14T08:21:59.156Z,100.00
2023-05-14T08:24:26.065Z,100.00
2023-05-14T08:26:53.033Z,100.00
2023-05-14T08:29:19.959Z,100.00
2023-05-14T08:31:48.321Z,100.00
2023-05-14T08:34:15.665Z,100.00
2023-05-14T08:36:43.155Z,100.00
2023-05-14T08:39:10.094Z,100.00
2023-05-14T08:41:37.787Z,100.00
2023-05-14T08:44:12.917Z,100.00
2023-05-14T08:46:41.363Z,100.00
2023-05-14T08:49:30.012Z,100.00
2023-05-14T08:51:57.490Z,100.00
2023-05-14T08:54:27.044Z,100.00
2023-05-14T08:56:55.830Z,100.00
2023-05-14T08:59:22.731Z,100.00
2023-05-14T09:01:54.043Z,100.00
2023-05-14T09:04:24.876Z,100.00
2023-05-14T09:06:56.302Z,100.00
2023-05-14T09:09:23.950Z,100.00
2023-05-14T09:11:53.605Z,100.00
2023-05-14T09:14:22.612Z,100.00
2023-05-14T09:16:51.351Z,100.00
2023-05-14T09:19:19.678Z,100.00
2023-05-14T09:21:49.100Z,100.00
2023-05-14T09:24:23.885Z,100.00
2023-05-14T09:26:58.057Z,100.00
2023-05-14T09:29:29.347Z,100.00
2023-05-14T09:31:58.248Z,100.00
2023-05-14T09:34:27.591Z,100.00
2023-05-14T09:37:03.576Z,100.00
2023-05-14T09:39:31.702Z,100.00
2023-05-14T09:41:58.951Z,100.00
2023-05-14T09:44:26.427Z,100.00
2023-05-14T09:46:55.847Z,100.00
2023-05-14T09:49:23.239Z,100.00
2023-05-14T09:51:50.946Z,100.00
2023-05-14T09:54:18.396Z,100.00
2023-05-14T09:56:45.348Z,100.00
2023-05-14T09:59:12.480Z,100.00
2023-05-14T10:01:42.809Z,100.00
2023-05-14T10:04:11.367Z,100.00
2023-05-14T10:06:39.524Z,100.00
2023-05-14T10:09:13.303Z,100.00
2023-05-14T10:11:49.863Z,100.00
2023-05-14T10:14:39.002Z,100.00
2023-05-14T10:17:08.144Z,100.00
2023-05-14T10:19:36.850Z,100.00
2023-05-14T10:22:11.421Z,100.00
2023-05-14T10:24:39.086Z,100.00
2023-05-14T10:27:06.273Z,100.00
2023-05-14T10:29:36.497Z,100.00
2023-05-14T10:32:07.205Z,100.00
2023-05-14T10:34:44.275Z,100.00
2023-05-14T10:37:18.904Z,100.00
2023-05-14T10:40:09.903Z,100.00
2023-05-14T10:42:43.592Z,100.00
2023-05-14T10:45:13.790Z,100.00
2023-05-14T10:47:46.272Z,100.00
2023-05-14T10:50:15.966Z,100.00
2023-05-14T10:52:45.244Z,100.00
2023-05-14T10:55:16.928Z,100.00
2023-05-14T10:57:46.327Z,100.00
2023-05-14T11:00:15.192Z,100.00
2023-05-14T11:02:44.615Z,100.00
2023-05-14T11:05:15.742Z,100.00
2023-05-14T11:07:46.850Z,100.00
2023-05-14T11:10:18.382Z,100.00
2023-05-14T11:12:48.482Z,100.00
2023-05-14T11:15:18.769Z,100.00
2023-05-14T11:17:47.294Z,100.00
2023-05-14T11:20:15.085Z,100.00
2023-05-14T11:22:43.801Z,100.00
2023-05-14T11:25:14.748Z,100.00
2023-05-14T11:27:44.528Z,100.00
2023-05-14T11:30:21.882Z,100.00
2023-05-14T11:32:50.497Z,100.00
2023-05-14T11:35:18.276Z,100.00
2023-05-14T11:37:52.245Z,100.00
2023-05-14T11:40:22.911Z,100.00
2023-05-14T11:42:53.300Z,100.00
2023-05-14T11:45:29.912Z,100.00
2023-05-14T11:47:56.812Z,100.00
2023-05-14T11:50:23.977Z,100.00
2023-05-14T11:52:51.210Z,100.00
2023-05-14T11:55:18.479Z,100.00
2023-05-14T11:57:45.454Z,100.00
2023-05-14T12:00:21.450Z,97.87
2023-05-14T12:02:49.930Z,95.64
2023-05-14T12:05:17.245Z,97.73
2023-05-14T12:07:48.009Z,99.63
2023-05-14T12:10:15.689Z,100.00
2023-05-14T12:12:48.460Z,99.97
2023-05-14T12:15:17.109Z,96.82
2023-05-14T12:17:51.656Z,96.06
2023-05-14T12:20:19.510Z,100.00
2023-05-14T12:22:46.648Z,100.00
2023-05-14T12:25:13.983Z,96.29
2023-05-14T12:27:41.316Z,99.60
2023-05-14T12:32:40.965Z,100.00
2023-05-14T12:35:08.949Z,100.00
2023-05-14T12:37:37.298Z,100.00
2023-05-14T12:40:09.201Z,100.00
2023-05-14T12:42:36.484Z,100.00
2023-05-14T12:45:07.248Z,100.00
2023-05-14T12:47:34.614Z,100.00
2023-05-14T12:50:01.932Z,100.00
2023-05-14T12:52:37.762Z,100.00
2023-05-14T12:55:09.873Z,100.00
2023-05-14T12:57:39.692Z,100.00
2023-05-14T13:00:12.975Z,100.00
2023-05-14T13:02:42.751Z,100.00
2023-05-14T13:05:13.881Z,100.00
2023-05-14T13:07:41.110Z,100.00
2023-05-14T13:10:08.760Z,100.00
2023-05-14T13:12:35.858Z,99.29
2023-05-14T13:15:02.703Z,96.25
2023-05-14T13:17:30.362Z,95.65
2023-05-14T13:19:57.463Z,97.96
2023-05-14T13:22:24.349Z,100.00
2023-05-14T13:24:51.301Z,99.48
2023-05-14T13:27:18.128Z,99.20
2023-05-14T13:29:45.216Z,98.27
2023-05-14T13:32:12.100Z,97.77
2023-05-14T13:34:38.888Z,93.12
2023-05-14T13:37:05.740Z,91.50
2023-05-14T13:39:32.878Z,90.30
2023-05-14T13:41:59.793Z,91.57
2023-05-14T13:44:27.704Z,92.52
2023-05-14T13:46:54.619Z,90.57
2023-05-14T13:49:21.477Z,88.36
2023-05-14T13:51:48.501Z,86.68
2023-05-14T13:54:15.482Z,86.72
2023-05-14T13:56:42.312Z,83.26
2023-05-14T13:59:09.293Z,79.92
2023-05-14T14:01:36.463Z,79.96
2023-05-14T14:04:03.432Z,80.68
2023-05-14T14:06:34.532Z,80.40
2023-05-14T14:09:01.808Z,81.11
2023-05-14T14:11:28.850Z,82.85
2023-05-14T14:13:55.748Z,83.38
2023-05-14T14:16:22.836Z,80.49
2023-05-14T14:18:49.853Z,78.86
2023-05-14T14:21:18.370Z,80.09
2023-05-14T14:23:48.875Z,78.54
2023-05-14T14:26:15.998Z,80.67
2023-05-14T14:28:43.063Z,81.34
2023-05-14T14:31:10.546Z,81.31
2023-05-14T14:33:37.513Z,84.17
2023-05-14T14:36:05.846Z,82.81
2023-05-14T14:38:32.856Z,81.28
2023-05-14T14:41:03.209Z,82.28
2023-05-14T14:43:29.978Z,82.22
2023-05-14T14:45:56.826Z,84.41
2023-05-14T14:48:41.166Z,81.42
2023-05-14T14:51:08.899Z,78.65
2023-05-14T14:53:36.884Z,80.12
2023-05-14T14:56:04.170Z,76.31
2023-05-14T14:58:31.291Z,77.45
2023-05-14T15:00:58.645Z,76.50
2023-05-14T15:03:26.477Z,75.79
2023-05-14T15:05:53.869Z,76.02
2023-05-14T15:08:25.286Z,71.65
2023-05-14T15:10:52.222Z,69.54
2023-05-14T15:13:19.580Z,69.64
2023-05-14T15:15:47.138Z,70.12
2023-05-14T15:18:14.104Z,71.88
2023-05-14T15:20:41.102Z,71.15
2023-05-14T15:23:08.143Z,72.58
2023-05-14T15:25:35.804Z,73.25
2023-05-14T15:28:03.002Z,74.73
2023-05-14T15:30:30.969Z,76.30
2023-05-14T15:32:57.853Z,78.54
2023-05-14T15:35:24.961Z,72.82
2023-05-14T15:37:55.153Z,73.02
2023-05-14T15:40:22.069Z,74.24
2023-05-14T15:42:48.980Z,72.49
2023-05-14T15:45:15.823Z,72.96
2023-05-14T15:47:44.919Z,72.73
2023-05-14T15:50:12.140Z,74.39
2023-05-14T15:52:39.567Z,75.34
2023-05-14T15:55:07.344Z,75.89
2023-05-14T15:57:34.761Z,75.25
2023-05-14T16:00:02.121Z,76.42
2023-05-14T16:02:30.469Z,76.21
2023-05-14T16:04:57.494Z,78.11
2023-05-14T16:07:24.358Z,78.38
2023-05-14T16:09:51.737Z,77.78
2023-05-14T16:12:18.773Z,78.73
2023-05-14T16:14:45.806Z,79.75
2023-05-14T16:17:12.932Z,79.64
2023-05-14T16:19:40.344Z,82.10
2023-05-14T16:22:07.512Z,80.87
2023-05-14T16:24:34.505Z,82.42
2023-05-14T16:27:01.437Z,81.75
2023-05-14T16:29:28.364Z,83.70
2023-05-14T16:31:55.338Z,86.29
2023-05-14T16:34:22.490Z,84.22
2023-05-14T16:36:50.790Z,81.53
2023-05-14T16:39:18.004Z,81.65
2023-05-14T16:41:44.846Z,80.05
2023-05-14T16:44:11.665Z,79.70
2023-05-14T16:46:38.553Z,76.85
2023-05-14T16:49:05.557Z,77.63
2023-05-14T16:51:32.887Z,76.58
2023-05-14T16:53:59.822Z,76.32
2023-05-14T16:56:27.052Z,74.85
2023-05-14T16:58:54.025Z,79.07
2023-05-14T17:01:21.057Z,75.93
2023-05-14T17:03:48.125Z,76.60
2023-05-14T17:06:14.937Z,76.33
2023-05-14T17:08:42.341Z,76.88
2023-05-14T17:11:09.208Z,77.64
2023-05-14T17:13:35.958Z,77.73
2023-05-14T17:16:03.076Z,78.07
2023-05-14T17:18:30.106Z,78.37
2023-05-14T17:20:58.752Z,79.13
2023-05-14T17:23:25.697Z,79.53
2023-05-14T17:25:52.589Z,80.74
2023-05-14T17:28:19.836Z,79.01
2023-05-14T17:30:46.598Z,78.10
2023-05-14T17:33:13.483Z,77.58
2023-05-14T17:35:43.702Z,78.34
2023-05-14T17:38:10.629Z,78.12
2023-05-14T17:40:37.439Z,78.43
2023-05-14T17:43:04.318Z,78.10
2023-05-14T17:45:39.277Z,76.66
2023-05-14T17:48:13.719Z,77.38
2023-05-14T17:50:40.695Z,78.75
2023-05-14T17:53:07.509Z,79.37
2023-05-14T17:55:39.850Z,78.79
2023-05-14T17:58:06.651Z,79.09
2023-05-14T18:00:33.467Z,82.45
2023-05-14T18:03:00.456Z,81.96
2023-05-14T18:05:29.761Z,80.88
2023-05-14T18:07:57.975Z,81.43
2023-05-14T18:10:25.461Z,80.07
2023-05-14T18:12:52.421Z,80.28
2023-05-14T18:15:22.041Z,80.42
2023-05-14T18:17:49.071Z,82.08
2023-05-14T18:20:16.008Z,81.75
2023-05-14T18:22:42.762Z,83.71
2023-05-14T18:25:09.835Z,83.99
2023-05-14T18:27:39.470Z,85.36
2023-05-14T18:30:07.359Z,88.12
2023-05-14T18:32:34.171Z,88.00
2023-05-14T18:35:01.087Z,90.21
2023-05-14T18:37:28.146Z,90.16
2023-05-14T18:39:54.956Z,97.03
2023-05-14T18:42:21.917Z,96.49
2023-05-14T18:44:48.751Z,100.00
2023-05-14T18:47:15.720Z,99.09
2023-05-14T18:49:42.644Z,100.00
2023-05-14T18:52:09.537Z,100.00
2023-05-14T18:54:36.306Z,100.00
2023-05-14T18:57:03.146Z,99.04
2023-05-14T18:59:29.992Z,100.00
2023-05-14T19:01:56.949Z,99.65
2023-05-14T19:04:24.180Z,100.00
2023-05-14T19:06:51.644Z,100.00
2023-05-14T19:09:21.024Z,100.00
2023-05-14T19:11:48.334Z,100.00
2023-05-14T19:14:15.185Z,100.00
2023-05-14T19:16:42.035Z,100.00
2023-05-14T19:19:09.119Z,100.00
2023-05-14T19:21:36.161Z,100.00
2023-05-14T19:24:04.266Z,100.00
2023-05-14T19:26:31.249Z,100.00
2023-05-14T19:28:58.654Z,100.00
2023-05-14T19:31:26.712Z,100.00
2023-05-14T19:33:54.598Z,100.00
2023-05-14T19:36:21.674Z,100.00
2023-05-14T19:38:48.837Z,100.00
2023-05-14T19:41:15.762Z,100.00
2023-05-14T19:43:42.705Z,100.00
2023-05-14T19:46:09.789Z,100.00
2023-05-14T19:48:36.668Z,100.00
2023-05-14T19:51:03.590Z,100.00
2023-05-14T19:53:30.597Z,100.00
2023-05-14T19:55:58.660Z,100.00
2023-05-14T19:58:26.517Z,100.00
2023-05-14T20:00:57.405Z,100.00
2023-05-14T20:03:27.823Z,100.00
2023-05-14T20:05:55.772Z,100.00
2023-05-14T20:08:22.809Z,100.00
2023-05-14T20:10:49.699Z,100.00
2023-05-14T20:13:16.579Z,100.00
2023-05-14T20:15:43.465Z,100.00
2023-05-14T20:18:10.277Z,100.00
2023-05-14T20:20:37.372Z,100.00
2023-05-14T20:23:04.228Z,100.00
2023-05-14T20:25:32.649Z,100.00
2023-05-14T20:28:02.266Z,100.00
2023-05-14T20:30:29.266Z,100.00
2023-05-14T20:32:56.422Z,100.00
2023-05-14T20:35:24.413Z,100.00
2023-05-14T20:37:51.371Z,100.00
2023-05-14T20:40:18.228Z,100.00
2023-05-14T20:42:45.377Z,100.00
2023-05-14T20:45:12.226Z,100.00
2023-05-14T20:47:40.239Z,100.00
2023-05-14T20:50:07.833Z,100.00
2023-05-14T20:52:34.704Z,100.00
2023-05-14T20:55:02.421Z,100.00
2023-05-14T20:57:29.361Z,100.00
2023-05-14T20:59:56.188Z,100.00
2023-05-14T21:02:23.065Z,100.00
2023-05-14T21:04:50.448Z,100.00
2023-05-14T21:07:17.236Z,100.00
2023-05-14T21:09:46.454Z,100.00
2023-05-14T21:12:13.276Z,100.00
2023-05-14T21:14:40.064Z,100.00
2023-05-14T21:17:06.932Z,100.00
2023-05-14T21:19:33.971Z,100.00
2023-05-14T21:22:00.792Z,100.00
2023-05-14T21:24:27.587Z,100.00
2023-05-14T21:26:54.431Z,100.00
2023-05-14T21:29:21.264Z,100.00
2023-05-14T21:31:48.849Z,100.00
2023-05-14T21:34:15.675Z,100.00
2023-05-14T21:36:42.562Z,100.00
2023-05-14T21:39:09.348Z,100.00
2023-05-14T21:41:36.095Z,100.00
2023-05-14T21:44:02.900Z,100.00
2023-05-14T21:46:30.942Z,100.00
2023-05-14T21:48:57.852Z,100.00
2023-05-14T21:51:24.699Z,100.00
2023-05-14T21:53:51.486Z,100.00
2023-05-14T21:56:18.255Z,100.00
2023-05-14T21:58:45.110Z,100.00
2023-05-14T22:01:11.961Z,100.00
2023-05-14T22:03:38.907Z,100.00
2023-05-14T22:06:06.029Z,100.00
2023-05-14T22:08:32.895Z,100.00
2023-05-14T22:10:59.783Z,100.00
2023-05-14T22:13:26.575Z,100.00
2023-05-14T22:16:01.511Z,100.00
2023-05-14T22:18:38.896Z,100.00
2023-05-14T22:21:06.101Z,100.00
2023-05-14T22:23:32.928Z,100.00
2023-05-14T22:25:59.890Z,100.00
2023-05-14T22:28:26.696Z,100.00
2023-05-14T22:30:53.688Z,100.00
2023-05-14T22:33:20.484Z,100.00
2023-05-14T22:35:47.277Z,100.00
2023-05-14T22:38:14.165Z,100.00
2023-05-14T22:40:41.085Z,100.00
2023-05-14T22:43:07.983Z,100.00
2023-05-14T22:45:34.931Z,100.00
2023-05-14T22:48:02.396Z,100.00
2023-05-14T22:50:29.284Z,100.00
2023-05-14T22:52:56.073Z,100.00
2023-05-14T22:55:23.108Z,100.00
2023-05-14T22:57:50.162Z,100.00
2023-05-14T23:00:17.305Z,100.00
2023-05-14T23:02:44.482Z,100.00
2023-05-14T23:05:11.428Z,100.00
2023-05-14T23:07:38.262Z,100.00
2023-05-14T23:10:06.139Z,100.00
2023-05-14T23:12:32.932Z,100.00
2023-05-14T23:14:59.741Z,100.00
2023-05-14T23:17:26.914Z,100.00
2023-05-14T23:19:53.822Z,100.00
2023-05-14T23:22:20.750Z,100.00
2023-05-14T23:24:47.538Z,100.00
2023-05-14T23:27:14.472Z,100.00
2023-05-14T23:29:41.278Z,100.00
2023-05-14T23:32:08.492Z,100.00
2023-05-14T23:34:35.400Z,100.00
2023-05-14T23:37:02.463Z,100.00
2023-05-14T23:39:29.360Z,100.00
2023-05-14T23:41:56.122Z,100.00
2023-05-14T23:44:23.497Z,100.00
2023-05-14T23:46:50.616Z,100.00
2023-05-14T23:49:17.458Z,100.00
2023-05-14T23:51:44.298Z,100.00
2023-05-14T23:54:11.740Z,100.00
2023-05-14T23:56:38.795Z,100.00
2023-05-14T23:59:05.643Z,100.00
